Time;durP1;ratioP1;P1;durP2;ratioP2;P2;SDS_P1;SDS_P2;PMS_P1;PMS_P2;Temp;Humidity;BMP_temperature;BMP_pressure;BME280_temperature;BME280_humidity;BME280_pressure;Samples;Min_cycle;Max_cycle;Signal;HPM_P1;HPM_P2
2022/05/15 00:01:49;;;;;;;11.93;3.50;;;15.60;90.00;;;;;;5048913;28;20518;-40
2022/05/15 00:04:15;;;;;;;15.68;3.97;;;15.50;90.20;;;;;;5047921;28;20028;-41
2022/05/15 00:06:40;;;;;;;15.05;4.65;;;15.50;90.20;;;;;;5048525;28;20571;-41
2022/05/15 00:09:06;;;;;;;12.45;4.35;;;15.50;90.30;;;;;;5048986;28;20506;-41
2022/05/15 00:11:32;;;;;;;14.95;3.78;;;15.50;90.30;;;;;;5047425;28;20409;-41
2022/05/15 00:13:57;;;;;;;7.57;3.05;;;15.40;90.60;;;;;;5048364;28;20029;-42
2022/05/15 00:16:25;;;;;;;16.95;4.65;;;15.40;90.30;;;;;;5048910;28;20028;-41
2022/05/15 00:18:51;;;;;;;11.23;3.75;;;15.40;90.30;;;;;;5047806;28;20086;-42
2022/05/15 00:21:17;;;;;;;15.27;3.78;;;15.40;90.40;;;;;;5046226;28;20013;-39
2022/05/15 00:23:43;;;;;;;12.00;4.35;;;15.40;90.40;;;;;;5048286;28;20032;-42
2022/05/15 00:26:10;;;;;;;11.63;3.97;;;15.40;90.40;;;;;;5047433;28;20475;-43
2022/05/15 00:28:35;;;;;;;13.65;3.88;;;15.40;90.40;;;;;;5047486;28;20571;-41
2022/05/15 00:31:03;;;;;;;13.20;4.07;;;15.40;90.50;;;;;;5048085;28;20571;-42
2022/05/15 00:33:29;;;;;;;10.80;3.63;;;15.40;90.40;;;;;;5047301;28;20025;-41
2022/05/15 00:35:54;;;;;;;12.15;4.03;;;15.40;90.50;;;;;;5048153;28;20393;-39
2022/05/15 00:38:20;;;;;;;12.90;4.43;;;15.40;90.40;;;;;;5047508;28;20570;-42
2022/05/15 00:40:47;;;;;;;10.77;3.05;;;15.40;90.40;;;;;;5047713;28;20083;-42
2022/05/15 00:43:33;;;;;;;10.88;3.35;;;15.30;90.40;;;;;;5047681;28;20061;-44
2022/05/15 00:45:59;;;;;;;12.30;3.33;;;15.40;90.50;;;;;;5047969;28;20033;-41
2022/05/15 00:48:25;;;;;;;14.40;4.40;;;15.30;90.50;;;;;;5047295;28;20051;-41
2022/05/15 00:50:50;;;;;;;16.00;4.38;;;15.30;90.50;;;;;;5047860;28;20017;-41
2022/05/15 00:53:17;;;;;;;14.25;3.85;;;15.30;90.50;;;;;;5047561;28;20021;-40
2022/05/15 00:55:46;;;;;;;18.13;3.80;;;15.30;90.50;;;;;;5047189;28;20485;-41
2022/05/15 00:58:24;;;;;;;13.10;3.95;;;15.30;90.60;;;;;;5047818;28;20162;-41
2022/05/15 01:00:50;;;;;;;16.48;4.72;;;15.30;90.60;;;;;;5047138;28;20126;-42
2022/05/15 01:03:18;;;;;;;13.68;4.00;;;15.30;90.70;;;;;;5047353;28;20056;-42
2022/05/15 01:05:50;;;;;;;13.25;3.85;;;15.20;90.70;;;;;;5047110;28;20859;-42
2022/05/15 01:08:15;;;;;;;13.15;4.20;;;15.20;90.80;;;;;;5047254;28;20064;-41
2022/05/15 01:10:45;;;;;;;13.35;3.50;;;15.20;90.80;;;;;;5047468;28;20085;-42
2022/05/15 01:13:13;;;;;;;13.18;4.00;;;15.10;90.80;;;;;;5028375;28;20037;-41
2022/05/15 01:15:39;;;;;;;13.85;4.18;;;15.10;90.80;;;;;;5040127;28;20024;-42
2022/05/15 01:18:06;;;;;;;16.35;4.25;;;15.10;91.00;;;;;;5047549;28;20104;-42
2022/05/15 01:20:32;;;;;;;12.75;3.80;;;15.10;91.00;;;;;;5046574;28;20060;-47
2022/05/15 01:22:58;;;;;;;12.98;3.60;;;15.10;91.10;;;;;;5047754;28;20028;-42
2022/05/15 01:25:28;;;;;;;10.85;3.50;;;15.10;91.00;;;;;;5047091;28;20358;-42
2022/05/15 01:28:18;;;;;;;14.05;3.85;;;15.00;91.00;;;;;;5046746;28;20024;-41
2022/05/15 01:30:47;;;;;;;16.15;4.32;;;15.00;91.00;;;;;;5047312;28;20017;-41
2022/05/15 01:33:12;;;;;;;16.42;4.40;;;15.00;91.10;;;;;;5047331;28;20037;-44
2022/05/15 01:35:38;;;;;;;12.13;4.32;;;15.00;91.10;;;;;;5046565;28;20040;-42
2022/05/15 01:38:04;;;;;;;16.08;4.43;;;15.00;91.10;;;;;;5047178;28;20048;-41
2022/05/15 01:40:30;;;;;;;18.30;4.43;;;14.90;91.10;;;;;;5046917;28;20021;-41
2022/05/15 01:42:56;;;;;;;11.90;3.92;;;15.00;91.10;;;;;;5035228;28;20071;-43
2022/05/15 01:45:22;;;;;;;14.80;4.22;;;14.90;91.00;;;;;;5047082;28;20029;-42
2022/05/15 01:47:49;;;;;;;11.95;3.67;;;14.90;91.00;;;;;;5047524;28;20750;-41
2022/05/15 01:50:14;;;;;;;13.20;3.13;;;14.90;90.90;;;;;;5045814;28;20560;-42
2022/05/15 01:52:40;;;;;;;16.63;4.55;;;14.90;91.00;;;;;;5046838;28;20051;-42
2022/05/15 01:55:07;;;;;;;15.82;5.80;;;14.90;90.90;;;;;;5047128;28;20486;-42
2022/05/15 01:57:32;;;;;;;15.02;3.85;;;14.90;90.90;;;;;;5045552;28;20519;-42
2022/05/15 01:59:58;;;;;;;10.50;3.70;;;14.90;90.90;;;;;;5047183;28;20079;-41
2022/05/15 02:02:23;;;;;;;11.68;3.53;;;14.90;90.90;;;;;;5045716;28;20018;-42
2022/05/15 02:04:49;;;;;;;7.07;2.83;;;14.90;90.90;;;;;;5046291;28;20481;-43
2022/05/15 02:07:15;;;;;;;9.25;3.25;;;14.90;90.90;;;;;;5046148;28;20036;-44
2022/05/15 02:09:40;;;;;;;12.13;3.67;;;14.80;90.90;;;;;;5046596;28;20028;-39
2022/05/15 02:12:07;;;;;;;13.25;3.95;;;14.80;91.00;;;;;;5046207;28;20032;-39
2022/05/15 02:14:33;;;;;;;11.98;3.58;;;14.80;91.10;;;;;;5045639;28;20033;-43
2022/05/15 02:16:58;;;;;;;12.00;3.17;;;14.80;91.10;;;;;;5046387;28;20024;-39
2022/05/15 02:19:24;;;;;;;9.50;3.28;;;14.70;91.20;;;;;;5046340;28;20512;-41
2022/05/15 02:21:49;;;;;;;11.32;4.15;;;14.70;91.20;;;;;;5046477;28;20032;-42
2022/05/15 02:24:15;;;;;;;13.15;3.70;;;14.70;91.20;;;;;;5045869;28;20029;-42
2022/05/15 02:26:40;;;;;;;15.82;3.83;;;14.70;91.30;;;;;;5045870;28;20059;-41
2022/05/15 02:29:07;;;;;;;9.25;3.20;;;14.70;91.30;;;;;;5046075;28;20049;-42
2022/05/15 02:31:33;;;;;;;12.95;3.67;;;14.70;91.40;;;;;;5045002;28;20025;-42
2022/05/15 02:34:00;;;;;;;14.55;3.72;;;14.60;91.40;;;;;;5046144;28;20431;-41
2022/05/15 02:36:26;;;;;;;9.52;3.20;;;14.60;91.50;;;;;;5045540;28;20390;-41
2022/05/15 02:38:52;;;;;;;11.45;3.10;;;14.60;91.60;;;;;;5044904;28;20469;-42
2022/05/15 02:41:17;;;;;;;9.90;3.22;;;14.60;91.70;;;;;;5046025;28;20025;-41
2022/05/15 02:43:43;;;;;;;16.38;4.10;;;14.60;91.70;;;;;;5045774;28;20560;-43
2022/05/15 02:46:08;;;;;;;11.15;3.40;;;14.60;91.80;;;;;;5045031;28;20029;-41
2022/05/15 02:51:18;;;;;;;11.05;3.60;;;14.60;92.00;;;;;;5046126;28;20083;-42
2022/05/15 02:53:45;;;;;;;9.93;3.03;;;14.50;92.10;;;;;;5045224;28;20018;-41
2022/05/15 02:56:17;;;;;;;11.05;3.28;;;14.50;92.10;;;;;;5046249;28;20021;-42
2022/05/15 02:58:43;;;;;;;14.48;3.70;;;14.50;92.10;;;;;;5044535;28;20140;-41
2022/05/15 03:01:09;;;;;;;8.68;3.13;;;14.50;92.20;;;;;;5046137;28;20472;-40
2022/05/15 03:03:35;;;;;;;9.68;3.35;;;14.50;92.20;;;;;;5045115;28;20033;-41
2022/05/15 03:06:00;;;;;;;12.88;3.60;;;14.50;92.20;;;;;;5046003;28;20049;-41
2022/05/15 03:08:26;;;;;;;12.75;3.67;;;14.40;92.20;;;;;;5045625;28;20037;-42
2022/05/15 03:10:52;;;;;;;8.38;2.90;;;14.40;92.50;;;;;;5046122;28;20067;-42
2022/05/15 03:13:17;;;;;;;8.10;3.00;;;14.40;92.40;;;;;;5044803;28;20036;-41
2022/05/15 03:15:43;;;;;;;12.38;3.55;;;14.40;92.40;;;;;;5045942;28;20075;-41
2022/05/15 03:18:08;;;;;;;11.63;3.15;;;14.40;92.50;;;;;;5046031;28;20499;-41
2022/05/15 03:20:34;;;;;;;10.30;3.47;;;14.40;92.50;;;;;;5044447;28;20086;-42
2022/05/15 03:23:00;;;;;;;9.70;3.00;;;14.40;92.50;;;;;;5046447;28;20017;-41
2022/05/15 03:25:33;;;;;;;9.27;3.00;;;14.30;92.50;;;;;;5045336;28;20036;-41
2022/05/15 03:27:59;;;;;;;9.43;2.83;;;14.30;92.50;;;;;;5045870;28;20025;-39
2022/05/15 03:30:25;;;;;;;10.35;2.95;;;14.30;92.60;;;;;;5045278;28;20025;-41
2022/05/15 03:32:56;;;;;;;11.30;3.13;;;14.30;92.60;;;;;;5046080;28;20095;-41
2022/05/15 03:35:25;;;;;;;10.57;3.35;;;14.20;92.70;;;;;;5044947;28;20056;-41
2022/05/15 03:37:51;;;;;;;9.95;3.78;;;14.20;92.80;;;;;;5046404;28;20373;-41
2022/05/15 03:40:16;;;;;;;8.10;3.03;;;14.20;92.80;;;;;;5045059;28;20500;-41
2022/05/15 03:42:45;;;;;;;12.68;3.28;;;14.20;92.80;;;;;;5045082;28;20525;-42
2022/05/15 03:45:14;;;;;;;9.30;2.90;;;14.20;92.90;;;;;;5046283;28;20025;-42
2022/05/15 03:47:51;;;;;;;11.60;3.60;;;14.10;92.90;;;;;;5045213;28;20453;-42
2022/05/15 03:50:19;;;;;;;11.65;3.35;;;14.10;93.00;;;;;;5044722;28;20482;-41
2022/05/15 03:52:45;;;;;;;10.32;3.00;;;14.10;93.10;;;;;;5045798;28;20043;-42
2022/05/15 03:55:12;;;;;;;8.15;2.53;;;14.10;93.10;;;;;;5045126;28;20515;-41
2022/05/15 03:57:38;;;;;;;10.60;2.97;;;14.10;93.10;;;;;;5044609;28;20134;-43
2022/05/15 04:00:10;;;;;;;7.78;2.30;;;14.10;93.10;;;;;;5046309;28;20083;-42
2022/05/15 04:02:38;;;;;;;11.70;2.92;;;14.00;93.10;;;;;;5034023;28;20128;-42
2022/05/15 04:05:05;;;;;;;9.77;3.08;;;14.00;93.10;;;;;;5045727;28;20040;-43
2022/05/15 04:07:30;;;;;;;10.30;2.90;;;14.00;93.20;;;;;;5048923;28;20082;-43
2022/05/15 04:09:56;;;;;;;9.73;3.13;;;14.00;93.20;;;;;;5048666;28;20481;-42
2022/05/15 04:12:21;;;;;;;9.15;2.95;;;14.00;93.20;;;;;;5048879;28;20032;-42
2022/05/15 04:14:47;;;;;;;13.65;3.45;;;14.00;93.30;;;;;;5049422;28;20049;-42
2022/05/15 04:17:12;;;;;;;9.65;3.08;;;14.00;93.30;;;;;;5048336;28;20207;-42
2022/05/15 04:19:38;;;;;;;13.23;3.72;;;14.00;93.30;;;;;;5048964;28;20489;-42
2022/05/15 04:22:05;;;;;;;16.02;4.00;;;14.00;93.40;;;;;;5049344;28;20025;-41
2022/05/15 04:24:32;;;;;;;12.15;3.20;;;14.00;93.50;;;;;;5047999;28;20078;-38
2022/05/15 04:26:58;;;;;;;10.75;3.45;;;14.00;93.50;;;;;;5048969;28;20029;-41
2022/05/15 04:29:24;;;;;;;10.85;3.28;;;14.00;93.50;;;;;;5048452;28;20040;-43
2022/05/15 04:31:55;;;;;;;9.63;3.90;;;14.00;93.60;;;;;;5047952;28;20377;-41
2022/05/15 04:34:22;;;;;;;9.95;3.30;;;14.00;93.60;;;;;;5048474;28;20405;-41
2022/05/15 04:36:48;;;;;;;11.05;3.22;;;14.00;93.60;;;;;;5048319;28;20028;-42
2022/05/15 04:39:15;;;;;;;9.57;3.80;;;14.00;93.70;;;;;;5048176;28;20036;-41
2022/05/15 04:41:40;;;;;;;10.48;3.42;;;14.00;93.70;;;;;;5047727;28;20096;-40
2022/05/15 04:44:06;;;;;;;10.93;3.67;;;14.00;93.80;;;;;;5048292;28;20155;-41
2022/05/15 04:46:32;;;;;;;12.48;3.95;;;14.00;93.80;;;;;;5047440;28;20548;-41
2022/05/15 04:48:58;;;;;;;9.15;3.03;;;14.00;93.80;;;;;;5048359;28;20025;-38
2022/05/15 04:51:24;;;;;;;11.10;3.30;;;14.00;93.80;;;;;;5048160;28;20114;-43
2022/05/15 04:53:50;;;;;;;11.88;3.38;;;14.00;93.80;;;;;;5047820;28;20021;-42
2022/05/15 04:56:16;;;;;;;8.93;3.10;;;14.00;93.80;;;;;;5048181;28;20029;-40
2022/05/15 04:58:41;;;;;;;10.27;2.90;;;14.00;93.80;;;;;;5047243;28;20063;-41
2022/05/15 05:01:07;;;;;;;8.73;2.92;;;14.10;93.90;;;;;;5048446;28;20158;-43
2022/05/15 05:03:32;;;;;;;8.82;3.20;;;14.10;93.90;;;;;;5047963;28;20029;-43
2022/05/15 05:05:58;;;;;;;12.20;3.88;;;14.10;93.90;;;;;;5047469;28;20032;-41
2022/05/15 05:08:24;;;;;;;10.88;3.45;;;14.10;93.90;;;;;;5047507;28;20116;-40
2022/05/15 05:10:49;;;;;;;10.15;3.55;;;14.20;94.00;;;;;;5047730;28;20034;-41
2022/05/15 05:13:15;;;;;;;12.38;4.28;;;14.20;93.90;;;;;;5047023;28;20013;-41
2022/05/15 05:15:40;;;;;;;11.70;3.65;;;14.20;94.00;;;;;;5047293;28;20028;-41
2022/05/15 05:18:06;;;;;;;8.13;3.53;;;14.20;94.00;;;;;;5047258;28;20021;-42
2022/05/15 05:20:32;;;;;;;8.00;2.97;;;14.20;94.00;;;;;;5046371;28;20028;-40
2022/05/15 05:22:57;;;;;;;14.00;3.65;;;14.30;94.00;;;;;;5047319;28;20024;-42
2022/05/15 05:25:23;;;;;;;12.98;4.00;;;14.30;94.00;;;;;;5047547;28;20029;-42
2022/05/15 05:27:48;;;;;;;8.65;3.20;;;14.30;94.00;;;;;;5046649;28;20104;-41
2022/05/15 05:30:18;;;;;;;10.38;3.42;;;14.40;94.10;;;;;;5046873;28;20033;-42
2022/05/15 05:32:43;;;;;;;8.68;3.40;;;14.40;94.10;;;;;;5047346;28;20442;-42
2022/05/15 05:35:11;;;;;;;10.93;3.30;;;14.40;94.40;;;;;;5046767;28;20531;-42
2022/05/15 05:37:36;;;;;;;9.43;2.95;;;14.40;94.10;;;;;;5046757;28;20036;-42
2022/05/15 05:40:02;;;;;;;9.85;3.10;;;14.50;94.10;;;;;;5047080;28;20035;-42
2022/05/15 05:42:28;;;;;;;11.95;3.40;;;14.50;94.20;;;;;;5045607;28;20029;-40
2022/05/15 05:44:54;;;;;;;14.38;4.03;;;14.50;94.10;;;;;;5046646;28;20043;-41
2022/05/15 05:47:27;;;;;;;12.07;3.70;;;14.50;94.20;;;;;;5046977;28;20052;-41
2022/05/15 05:49:54;;;;;;;10.63;3.40;;;14.60;94.20;;;;;;5046265;28;20376;-43
2022/05/15 05:52:41;;;;;;;9.68;3.13;;;14.60;94.20;;;;;;5047057;28;20086;-40
2022/05/15 05:55:10;;;;;;;7.00;2.70;;;14.70;94.20;;;;;;5044964;28;20068;-41
2022/05/15 05:57:38;;;;;;;7.90;3.35;;;14.70;94.20;;;;;;5045200;28;20041;-42
2022/05/15 06:00:05;;;;;;;9.73;3.30;;;14.70;94.10;;;;;;5046640;28;20021;-41
2022/05/15 06:02:31;;;;;;;12.38;3.58;;;14.80;94.20;;;;;;5045944;28;20341;-40
2022/05/15 06:04:56;;;;;;;7.68;2.75;;;14.80;94.10;;;;;;5046561;28;20029;-41
2022/05/15 06:07:25;;;;;;;9.45;2.85;;;14.80;94.10;;;;;;5045987;28;20045;-40
2022/05/15 06:09:51;;;;;;;10.15;3.28;;;14.90;94.10;;;;;;5046133;28;20496;-40
2022/05/15 06:12:19;;;;;;;10.50;3.20;;;14.90;94.10;;;;;;5046693;28;20025;-40
2022/05/15 06:14:45;;;;;;;9.90;3.22;;;15.00;94.20;;;;;;5046173;28;20032;-41
2022/05/15 06:17:11;;;;;;;7.72;2.80;;;15.00;94.10;;;;;;5046236;28;20025;-41
2022/05/15 06:19:38;;;;;;;10.85;3.25;;;15.10;94.10;;;;;;5045387;28;20112;-42
2022/05/15 06:22:03;;;;;;;11.20;3.20;;;15.10;94.10;;;;;;5046969;28;20017;-41
2022/05/15 06:24:29;;;;;;;8.57;2.90;;;15.20;94.10;;;;;;5045211;28;20396;-43
2022/05/15 06:26:58;;;;;;;7.68;2.90;;;15.20;94.10;;;;;;5046292;28;20021;-41
2022/05/15 06:29:25;;;;;;;8.95;3.53;;;15.20;94.00;;;;;;5045936;28;20025;-42
2022/05/15 06:31:50;;;;;;;11.23;3.70;;;15.20;94.00;;;;;;5045106;28;20043;-42
2022/05/15 06:34:16;;;;;;;10.13;3.50;;;15.30;94.00;;;;;;5046248;28;20021;-41
2022/05/15 06:36:42;;;;;;;8.63;3.30;;;15.40;94.00;;;;;;5045694;28;20029;-39
2022/05/15 06:39:08;;;;;;;7.60;2.92;;;15.40;94.00;;;;;;5045387;28;20086;-41
2022/05/15 06:41:33;;;;;;;8.90;3.50;;;15.40;94.00;;;;;;5045694;28;20029;-42
2022/05/15 06:43:59;;;;;;;7.13;2.92;;;15.40;93.90;;;;;;5046240;28;20558;-42
2022/05/15 06:46:25;;;;;;;8.82;3.15;;;15.50;93.90;;;;;;5045088;28;20041;-43
2022/05/15 06:48:51;;;;;;;10.10;3.70;;;15.50;93.90;;;;;;5046400;28;20031;-42
2022/05/15 06:51:17;;;;;;;11.80;4.40;;;15.60;93.90;;;;;;5046018;28;20017;-41
2022/05/15 06:53:43;;;;;;;9.18;3.45;;;15.60;93.90;;;;;;5046376;28;20025;-42
2022/05/15 06:58:53;;;;;;;12.85;3.53;;;15.70;93.80;;;;;;5046381;28;20055;-41
2022/05/15 07:01:19;;;;;;;10.30;3.67;;;15.70;93.80;;;;;;5046040;28;20024;-43
2022/05/15 07:03:45;;;;;;;7.85;2.92;;;15.70;93.80;;;;;;5046953;28;20485;-42
2022/05/15 07:06:10;;;;;;;7.75;3.50;;;15.80;93.80;;;;;;5046300;28;20901;-41
2022/05/15 07:08:37;;;;;;;8.32;2.92;;;15.80;93.80;;;;;;5046369;28;20040;-42
2022/05/15 07:11:03;;;;;;;8.63;3.22;;;15.90;93.80;;;;;;5045822;28;20045;-41
2022/05/15 07:13:32;;;;;;;7.95;3.40;;;15.90;93.80;;;;;;5043544;28;20099;-41
2022/05/15 07:15:58;;;;;;;9.85;4.10;;;16.00;93.80;;;;;;5045654;28;20393;-41
2022/05/15 07:18:24;;;;;;;7.97;3.22;;;16.10;93.80;;;;;;5044341;28;20569;-42
2022/05/15 07:20:51;;;;;;;9.55;3.67;;;16.10;93.80;;;;;;5044372;28;20136;-42
2022/05/15 07:23:17;;;;;;;8.88;3.33;;;16.20;93.70;;;;;;5045093;28;20060;-41
2022/05/15 07:25:43;;;;;;;8.57;3.00;;;16.20;93.70;;;;;;5026744;28;20075;-39
2022/05/15 07:28:08;;;;;;;10.15;4.03;;;16.20;93.70;;;;;;5040377;28;20436;-42
2022/05/15 07:30:34;;;;;;;6.97;3.17;;;16.30;93.90;;;;;;5046499;28;20025;-42
2022/05/15 07:33:00;;;;;;;6.38;3.25;;;16.30;93.60;;;;;;5046174;28;20033;-42
2022/05/15 07:35:27;;;;;;;8.48;3.10;;;16.40;93.60;;;;;;5045370;28;20040;-41
2022/05/15 07:37:53;;;;;;;8.18;3.15;;;16.40;93.60;;;;;;5046749;28;20021;-41
2022/05/15 07:40:18;;;;;;;6.28;3.10;;;16.50;93.60;;;;;;5046645;28;20083;-42
2022/05/15 07:42:44;;;;;;;9.18;3.42;;;16.50;93.60;;;;;;5050353;28;20348;-40
2022/05/15 07:45:11;;;;;;;8.13;3.35;;;16.60;93.60;;;;;;5050255;28;20468;-41
2022/05/15 07:47:37;;;;;;;9.20;3.28;;;16.60;93.60;;;;;;5048146;28;20120;-42
2022/05/15 07:50:03;;;;;;;8.50;3.20;;;16.70;93.60;;;;;;5048919;28;20442;-42
2022/05/15 07:52:29;;;;;;;9.10;3.35;;;16.70;93.60;;;;;;5048660;28;20024;-41
2022/05/15 07:54:54;;;;;;;7.53;3.63;;;16.80;93.50;;;;;;5047769;28;20390;-41
2022/05/15 07:57:20;;;;;;;6.32;3.30;;;16.90;93.50;;;;;;5046483;28;20024;-41
2022/05/15 07:59:45;;;;;;;9.45;4.07;;;16.90;93.50;;;;;;5046009;28;20063;-41
2022/05/15 08:02:11;;;;;;;7.93;3.35;;;17.00;93.40;;;;;;5046901;28;20025;-42
2022/05/15 08:10:07;;;;;;;7.07;3.40;;;17.20;93.30;;;;;;5045955;28;20036;-41
2022/05/15 08:12:34;;;;;;;6.68;2.92;;;17.40;93.30;;;;;;5047265;28;20056;-41
2022/05/15 08:15:04;;;;;;;10.02;3.72;;;17.40;93.30;;;;;;5047252;28;20090;-41
2022/05/15 08:17:30;;;;;;;7.75;3.70;;;17.50;93.30;;;;;;5026416;28;20132;-42
2022/05/15 08:25:25;;;;;;;8.65;3.20;;;17.60;93.20;;;;;;5045810;28;20109;-41
2022/05/15 08:27:50;;;;;;;6.38;3.50;;;17.60;93.20;;;;;;5048086;28;20032;-42
2022/05/15 08:30:17;;;;;;;6.50;3.42;;;17.70;93.20;;;;;;5047494;28;20025;-42
2022/05/15 08:32:43;;;;;;;6.82;3.30;;;17.70;93.20;;;;;;5046766;28;20025;-40
2022/05/15 08:35:09;;;;;;;6.00;2.97;;;17.80;93.20;;;;;;5048186;28;20361;-42
2022/05/15 08:37:36;;;;;;;5.53;3.40;;;17.80;93.20;;;;;;5046720;28;20159;-40
2022/05/15 08:40:02;;;;;;;7.50;3.42;;;17.90;93.50;;;;;;5046413;28;20041;-42
2022/05/15 08:42:50;;;;;;;6.07;2.88;;;17.90;93.20;;;;;;5045800;28;20039;-40
2022/05/15 08:45:20;;;;;;;5.65;3.03;;;18.00;93.20;;;;;;5037528;28;20032;-41
2022/05/15 08:47:51;;;;;;;6.90;3.25;;;18.00;93.10;;;;;;5051280;28;20472;-40
2022/05/15 08:50:26;;;;;;;7.47;3.45;;;18.10;93.10;;;;;;5048352;28;20151;-42
2022/05/15 08:53:01;;;;;;;7.60;3.35;;;18.10;93.10;;;;;;5047340;28;20021;-41
2022/05/15 08:55:38;;;;;;;6.82;3.38;;;18.20;93.00;;;;;;5046176;28;20087;-42
2022/05/15 08:58:09;;;;;;;8.95;3.33;;;18.30;92.90;;;;;;5046352;28;20067;-42
2022/05/15 09:00:42;;;;;;;8.07;3.17;;;18.30;92.80;;;;;;5047542;28;20039;-41
2022/05/15 09:03:30;;;;;;;7.53;2.95;;;18.40;92.80;;;;;;5046611;28;20029;-42
2022/05/15 09:06:24;;;;;;;5.68;2.85;;;18.50;92.80;;;;;;5045852;28;20019;-40
2022/05/15 09:09:08;;;;;;;5.10;2.88;;;18.50;92.70;;;;;;5047292;28;20079;-41
2022/05/15 09:11:49;;;;;;;6.38;3.08;;;18.60;92.70;;;;;;5041190;28;20037;-41
2022/05/15 09:14:35;;;;;;;6.80;2.53;;;18.70;92.60;;;;;;5039361;28;20021;-40
2022/05/15 09:17:20;;;;;;;6.07;2.78;;;18.70;92.60;;;;;;5043678;28;20753;-42
2022/05/15 09:19:51;;;;;;;6.40;2.80;;;18.80;92.50;;;;;;5030246;28;20041;-40
2022/05/15 09:22:18;;;;;;;8.38;2.97;;;18.80;92.50;;;;;;5045910;28;20578;-41
2022/05/15 09:24:51;;;;;;;6.55;2.72;;;18.90;92.40;;;;;;5047366;28;20032;-38
2022/05/15 09:27:23;;;;;;;4.60;2.17;;;19.00;92.40;;;;;;5044586;28;20109;-42
2022/05/15 09:30:00;;;;;;;5.75;2.05;;;19.10;92.30;;;;;;5046022;28;20020;-39
2022/05/15 09:32:38;;;;;;;6.53;2.78;;;19.10;92.20;;;;;;5043391;28;20027;-41
2022/05/15 09:35:09;;;;;;;5.40;2.95;;;19.20;92.20;;;;;;5027811;28;20044;-42
2022/05/15 09:40:39;;;;;;;5.68;2.17;;;19.30;91.90;;;;;;5026989;28;20053;-39
2022/05/15 09:45:56;;;;;;;6.13;1.80;;;19.50;91.60;;;;;;5046899;28;20059;-42
2022/05/15 09:48:35;;;;;;;9.88;2.83;;;19.60;91.20;;;;;;5046382;28;20044;-41
2022/05/15 09:51:03;;;;;;;6.60;2.03;;;19.60;90.70;;;;;;5047594;28;20059;-40
2022/05/15 09:53:44;;;;;;;8.20;2.53;;;19.70;90.60;;;;;;5046664;28;20040;-40
2022/05/15 09:56:32;;;;;;;7.07;2.33;;;19.70;90.50;;;;;;5046820;28;20041;-41
2022/05/15 09:58:59;;;;;;;4.70;2.05;;;19.80;90.40;;;;;;5044654;28;20052;-39
2022/05/15 10:01:35;;;;;;;7.57;2.10;;;19.90;90.20;;;;;;5046110;28;20381;-40
2022/05/15 10:04:03;;;;;;;5.03;2.05;;;19.90;90.00;;;;;;5046025;28;20025;-41
2022/05/15 10:06:37;;;;;;;6.70;2.20;;;20.00;89.70;;;;;;5046241;28;20071;-42
2022/05/15 10:09:22;;;;;;;5.50;2.25;;;20.10;89.30;;;;;;5046077;28;20036;-40
2022/05/15 10:11:52;;;;;;;5.85;2.22;;;20.20;89.30;;;;;;5046072;28;20031;-40
2022/05/15 10:14:52;;;;;;;7.28;2.42;;;20.30;88.80;;;;;;5045920;28;20028;-42
2022/05/15 10:17:20;;;;;;;5.57;2.50;;;20.40;88.10;;;;;;5030520;28;20029;-41
2022/05/15 10:20:01;;;;;;;9.05;2.60;;;20.50;87.60;;;;;;5042560;28;20029;-40
2022/05/15 10:22:53;;;;;;;5.30;2.30;;;20.50;88.30;;;;;;5044729;28;20052;-41
2022/05/15 10:25:40;;;;;;;7.22;2.30;;;20.60;87.80;;;;;;5045542;28;20032;-41
2022/05/15 10:28:19;;;;;;;4.72;2.30;;;20.60;87.70;;;;;;5046710;28;20032;-40
2022/05/15 10:31:18;;;;;;;5.95;2.47;;;20.70;87.60;;;;;;5036060;28;20459;-41
2022/05/15 10:33:53;;;;;;;8.88;3.45;;;20.80;87.60;;;;;;5044743;28;20129;-41
2022/05/15 10:36:28;;;;;;;5.85;2.67;;;20.90;87.30;;;;;;5045513;28;20037;-41
2022/05/15 10:39:06;;;;;;;7.88;3.15;;;20.90;87.20;;;;;;5046489;28;20063;-42
2022/05/15 10:41:56;;;;;;;5.20;2.35;;;20.90;86.70;;;;;;5045755;28;20017;-45
2022/05/15 10:44:47;;;;;;;4.25;2.03;;;20.90;86.30;;;;;;5045646;28;20037;-42
2022/05/15 10:47:19;;;;;;;4.03;2.10;;;21.00;86.60;;;;;;5045961;28;20039;-42
2022/05/15 10:50:18;;;;;;;4.40;1.75;;;21.10;85.90;;;;;;5045586;28;20037;-42
2022/05/15 10:57:21;;;;;;;4.60;2.17;;;21.10;85.70;;;;;;5026043;28;20091;-41
2022/05/15 10:59:03;;;;;;;4.50;1.70;;;21.20;84.60;;;;;;5044887;28;20535;-41
2022/05/15 11:01:36;;;;;;;2.55;1.50;;;21.20;84.30;;;;;;5045527;28;20025;-41
2022/05/15 11:04:29;;;;;;;5.68;1.98;;;21.20;83.50;;;;;;5045588;28;20497;-41
2022/05/15 11:07:04;;;;;;;3.47;1.70;;;21.30;82.80;;;;;;5036429;28;20040;-41
2022/05/15 11:10:02;;;;;;;4.80;1.83;;;21.30;82.40;;;;;;5045448;28;20029;-41
2022/05/15 11:12:33;;;;;;;2.53;1.20;;;21.40;82.10;;;;;;5044646;28;20051;-39
2022/05/15 11:15:43;;;;;;;3.63;1.58;;;21.40;82.80;;;;;;5047771;28;20021;-42
2022/05/15 11:18:32;;;;;;;5.63;2.00;;;21.40;82.10;;;;;;4968468;28;20030;-40
2022/05/15 11:21:01;;;;;;;6.82;2.03;;;21.50;80.60;;;;;;5045479;28;20070;-41
2022/05/15 11:23:42;;;;;;;4.15;1.77;;;21.50;80.40;;;;;;5048979;28;20396;-40
2022/05/15 11:26:37;;;;;;;3.28;1.60;;;21.60;80.50;;;;;;5048817;28;20457;-41
2022/05/15 11:29:10;;;;;;;5.18;1.90;;;21.60;80.50;;;;;;5029564;28;20029;-41
2022/05/15 11:31:46;;;;;;;4.40;2.00;;;21.70;79.90;;;;;;5045986;28;20123;-41
2022/05/15 11:34:14;;;;;;;3.90;1.75;;;21.80;79.70;;;;;;5049286;28;20040;-41
2022/05/15 11:36:43;;;;;;;5.00;1.95;;;21.80;79.70;;;;;;5048771;28;20060;-41
2022/05/15 11:39:15;;;;;;;5.15;1.90;;;21.80;79.40;;;;;;5029471;28;20518;-41
2022/05/15 11:41:43;;;;;;;6.80;2.05;;;21.90;78.60;;;;;;5043456;28;20116;-42
2022/05/15 11:44:14;;;;;;;6.65;1.90;;;21.90;78.80;;;;;;5049922;28;20028;-42
2022/05/15 11:46:46;;;;;;;4.22;1.70;;;21.90;78.80;;;;;;5048124;28;20099;-42
2022/05/15 11:49:16;;;;;;;3.60;1.60;;;22.00;78.90;;;;;;5049211;28;20040;-42
2022/05/15 11:51:43;;;;;;;3.90;1.60;;;22.10;78.90;;;;;;5048710;28;20029;-42
2022/05/15 11:54:10;;;;;;;3.95;2.22;;;22.10;78.60;;;;;;5048201;28;20491;-42
2022/05/15 11:56:56;;;;;;;5.88;1.83;;;22.10;78.30;;;;;;5048171;28;20821;-41
2022/05/15 11:59:26;;;;;;;4.78;1.40;;;22.20;78.00;;;;;;5048862;28;20057;-42
2022/05/15 12:01:53;;;;;;;7.07;2.53;;;22.30;77.80;;;;;;5048182;28;20100;-41
2022/05/15 12:04:25;;;;;;;5.32;1.90;;;22.40;76.70;;;;;;5048817;28;20600;-41
2022/05/15 12:06:56;;;;;;;3.78;1.90;;;22.40;76.20;;;;;;5049430;28;20052;-42
2022/05/15 12:09:22;;;;;;;3.63;1.40;;;22.50;75.30;;;;;;5048195;28;20036;-43
2022/05/15 12:11:50;;;;;;;4.90;2.00;;;22.50;75.60;;;;;;5048823;28;21172;-41
2022/05/15 12:14:22;;;;;;;3.83;1.70;;;22.50;76.40;;;;;;5048244;28;20055;-43
2022/05/15 12:17:01;;;;;;;4.90;2.00;;;22.50;75.70;;;;;;5048381;28;20032;-41
2022/05/15 12:19:34;;;;;;;3.45;1.30;;;22.50;75.50;;;;;;5048352;28;20096;-42
2022/05/15 12:22:13;;;;;;;5.18;1.83;;;22.60;75.10;;;;;;5047919;28;20432;-41
2022/05/15 12:24:43;;;;;;;3.45;1.60;;;22.60;74.10;;;;;;5048649;28;20041;-41
2022/05/15 12:27:20;;;;;;;2.13;1.08;;;22.70;73.80;;;;;;5047727;28;20021;-41
2022/05/15 12:30:15;;;;;;;4.30;1.70;;;22.80;73.50;;;;;;5047672;28;20033;-42
2022/05/15 12:32:51;;;;;;;3.60;1.90;;;22.80;73.10;;;;;;5048179;28;20055;-41
2022/05/15 12:35:35;;;;;;;5.15;1.70;;;22.80;72.40;;;;;;5048929;28;20033;-41
2022/05/15 12:38:19;;;;;;;3.13;1.80;;;22.90;71.40;;;;;;5047257;28;20032;-42
2022/05/15 12:40:54;;;;;;;4.80;1.30;;;22.90;71.60;;;;;;5048490;28;20120;-42
2022/05/15 12:43:32;;;;;;;2.53;1.20;;;23.00;71.90;;;;;;5048631;28;20116;-42
2022/05/15 12:45:58;;;;;;;3.58;1.50;;;23.00;71.10;;;;;;5048787;28;20314;-42
2022/05/15 12:48:25;;;;;;;3.85;1.40;;;23.10;71.00;;;;;;5047409;28;20051;-42
2022/05/15 12:51:07;;;;;;;3.35;1.50;;;23.10;71.00;;;;;;5047107;28;20075;-42
2022/05/15 12:53:40;;;;;;;2.85;1.30;;;23.10;71.00;;;;;;5047275;28;20243;-43
2022/05/15 12:56:31;;;;;;;2.85;1.10;;;23.20;71.20;;;;;;5048311;28;20041;-41
2022/05/15 12:59:00;;;;;;;4.13;1.60;;;23.20;70.80;;;;;;5046724;28;20090;-41
2022/05/15 13:01:33;;;;;;;1.90;1.23;;;23.20;70.30;;;;;;5046742;28;20025;-42
2022/05/15 13:04:02;;;;;;;2.75;1.40;;;23.30;70.30;;;;;;5047168;28;20024;-39
2022/05/15 13:06:34;;;;;;;3.88;1.90;;;23.30;69.90;;;;;;5046976;28;20546;-39
2022/05/15 13:09:05;;;;;;;2.38;1.13;;;23.40;69.10;;;;;;5047235;28;20036;-40
2022/05/15 13:11:47;;;;;;;2.30;1.20;;;23.40;69.00;;;;;;5046035;28;20021;-41
2022/05/15 13:14:20;;;;;;;;;;;23.50;68.50;;;;;;5047050;28;20127;-40
2022/05/15 13:16:51;;;;;;;3.78;1.27;;;23.50;68.40;;;;;;5046249;28;19909;-41
2022/05/15 13:19:31;;;;;;;3.83;1.65;;;23.50;68.30;;;;;;5045734;28;20790;-40
2022/05/15 13:22:00;;;;;;;3.67;1.50;;;23.60;68.50;;;;;;5047728;28;20047;-41
2022/05/15 13:24:28;;;;;;;3.55;1.30;;;23.60;68.10;;;;;;5045754;28;20017;-41